createdAt,value
2022-12-11T00:01:32.317Z,-2.32
2022-12-11T00:03:58.727Z,-2.17
2022-12-11T00:06:25.164Z,-2.26
2022-12-11T00:08:53.953Z,-2.21
2022-12-11T00:11:22.346Z,-2.10
2022-12-11T00:13:48.826Z,-2.11
2022-12-11T00:16:15.627Z,-2.13
2022-12-11T00:18:42.435Z,-2.15
2022-12-11T00:21:12.465Z,-2.05
2022-12-11T00:23:39.147Z,-2.11
2022-12-11T00:26:07.817Z,-2.29
2022-12-11T00:28:34.271Z,-2.41
2022-12-11T00:31:07.320Z,-2.32
2022-12-11T00:33:34.263Z,-2.24
2022-12-11T00:36:01.062Z,-2.25
2022-12-11T00:38:27.537Z,-2.18
2022-12-11T00:40:58.660Z,-2.16
2022-12-11T00:43:25.039Z,-2.10
2022-12-11T00:45:51.458Z,-2.17
2022-12-11T00:48:17.833Z,-2.18
2022-12-11T00:50:44.270Z,-2.27
2022-12-11T00:53:10.720Z,-2.28
2022-12-11T00:55:39.857Z,-2.28
2022-12-11T00:58:06.954Z,-2.27
2022-12-11T01:00:33.721Z,-2.22
2022-12-11T01:03:00.185Z,-2.27
2022-12-11T01:05:26.673Z,-2.27
2022-12-11T01:07:53.113Z,-2.14
2022-12-11T01:10:26.004Z,-2.28
2022-12-11T01:12:58.168Z,-2.33
2022-12-11T01:15:27.883Z,-2.37
2022-12-11T01:17:54.671Z,-2.28
2022-12-11T01:20:23.087Z,-2.25
2022-12-11T01:22:52.797Z,-2.26
2022-12-11T01:25:19.526Z,-2.36
2022-12-11T01:27:45.902Z,-2.35
2022-12-11T01:30:14.165Z,-2.35
2022-12-11T01:32:40.540Z,-2.48
2022-12-11T01:35:07.898Z,-2.48
2022-12-11T01:37:34.425Z,-2.55
2022-12-11T01:40:01.808Z,-2.66
2022-12-11T01:42:29.500Z,-2.68
2022-12-11T01:45:14.611Z,-2.69
2022-12-11T01:47:41.022Z,-2.69
2022-12-11T01:50:07.887Z,-2.70
2022-12-11T01:52:34.411Z,-2.67
2022-12-11T01:55:01.411Z,-2.97
2022-12-11T01:57:27.791Z,-2.84
2022-12-11T01:59:54.184Z,-2.82
2022-12-11T02:02:26.022Z,-2.77
2022-12-11T02:04:52.425Z,-2.71
2022-12-11T02:07:18.821Z,-2.65
2022-12-11T02:09:47.426Z,-2.61
2022-12-11T02:12:24.607Z,-2.69
2022-12-11T02:15:06.094Z,-2.86
2022-12-11T02:17:44.136Z,-2.90
2022-12-11T02:20:42.008Z,-2.72
2022-12-11T02:23:40.958Z,-2.66
2022-12-11T02:26:22.644Z,-2.57
2022-12-11T02:28:53.762Z,-2.61
2022-12-11T02:31:45.159Z,-2.56
2022-12-11T02:34:18.064Z,-2.58
2022-12-11T02:36:51.304Z,-2.64
2022-12-11T02:39:18.855Z,-2.61
2022-12-11T02:41:50.529Z,-2.45
2022-12-11T02:44:21.443Z,-2.72
2022-12-11T02:46:48.090Z,-2.65
2022-12-11T02:49:15.261Z,-2.70
2022-12-11T02:51:43.230Z,-2.77
2022-12-11T02:54:16.027Z,-2.83
2022-12-11T02:56:47.110Z,-2.85
2022-12-11T02:59:23.785Z,-2.84
2022-12-11T03:01:50.577Z,-2.80
2022-12-11T03:04:17.425Z,-2.87
2022-12-11T03:06:49.372Z,-2.86
2022-12-11T03:09:15.785Z,-2.84
2022-12-11T03:11:42.155Z,-2.91
2022-12-11T03:14:08.841Z,-2.92
2022-12-11T03:16:42.835Z,-2.83
2022-12-11T03:19:30.507Z,-2.88
2022-12-11T03:22:09.536Z,-2.86
2022-12-11T03:24:43.963Z,-2.82
2022-12-11T03:27:19.902Z,-2.83
2022-12-11T03:30:00.442Z,-2.96
2022-12-11T03:32:31.233Z,-2.85
2022-12-11T03:35:05.307Z,-2.88
2022-12-11T03:37:36.430Z,-2.88
2022-12-11T03:40:09.262Z,-2.79
2022-12-11T03:42:37.418Z,-2.85
2022-12-11T03:45:05.738Z,-2.92
2022-12-11T03:47:33.015Z,-2.98
2022-12-11T03:50:00.130Z,-2.92
2022-12-11T03:52:29.071Z,-2.90
2022-12-11T03:54:59.377Z,-2.97
2022-12-11T03:57:30.408Z,-2.94
2022-12-11T03:59:57.683Z,-2.97
2022-12-11T04:02:24.048Z,-2.96
2022-12-11T04:04:50.474Z,-2.93
2022-12-11T04:07:16.910Z,-2.89
2022-12-11T04:09:43.317Z,-2.86
2022-12-11T04:12:09.711Z,-2.89
2022-12-11T04:14:54.565Z,-2.84
2022-12-11T04:17:39.477Z,-2.85
2022-12-11T04:20:25.319Z,-2.88
2022-12-11T04:23:10.159Z,-2.93
2022-12-11T04:25:36.611Z,-2.88
2022-12-11T04:28:03.007Z,-2.90
2022-12-11T04:30:33.890Z,-2.87
2022-12-11T04:33:00.931Z,-2.93
2022-12-11T04:35:27.509Z,-2.99
2022-12-11T04:37:53.943Z,-3.00
2022-12-11T04:40:20.716Z,-2.99
2022-12-11T04:42:47.440Z,-3.12
2022-12-11T04:45:14.244Z,-3.03
2022-12-11T04:47:41.176Z,-3.01
2022-12-11T04:50:10.520Z,-2.99
2022-12-11T04:52:36.923Z,-3.07
2022-12-11T04:55:05.425Z,-3.11
2022-12-11T04:57:31.788Z,-3.05
2022-12-11T04:59:58.161Z,-3.12
2022-12-11T05:02:24.574Z,-3.14
2022-12-11T05:04:50.962Z,-3.14
2022-12-11T05:07:17.324Z,-3.11
2022-12-11T05:09:43.724Z,-3.10
2022-12-11T05:12:10.158Z,-3.11
2022-12-11T05:14:36.531Z,-3.08
2022-12-11T05:17:02.888Z,-3.12
2022-12-11T05:19:29.316Z,-3.09
2022-12-11T05:21:55.721Z,-3.09
2022-12-11T05:24:22.094Z,-3.11
2022-12-11T05:26:48.460Z,-3.09
2022-12-11T05:29:14.844Z,-3.04
2022-12-11T05:31:41.581Z,-3.07
2022-12-11T05:34:08.137Z,-3.05
2022-12-11T05:36:34.857Z,-2.96
2022-12-11T05:39:03.075Z,-3.00
2022-12-11T05:41:31.112Z,-2.98
2022-12-11T05:43:57.611Z,-2.98
2022-12-11T05:46:26.827Z,-2.96
2022-12-11T05:49:02.044Z,-3.02
2022-12-11T05:51:29.539Z,-3.08
2022-12-11T05:53:57.248Z,-3.07
2022-12-11T05:56:26.486Z,-2.97
2022-12-11T05:58:53.682Z,-3.05
2022-12-11T06:01:25.916Z,-3.06
2022-12-11T06:03:54.277Z,-3.05
2022-12-11T06:06:21.056Z,-3.06
2022-12-11T06:08:51.149Z,-3.05
2022-12-11T06:11:23.621Z,-3.05
2022-12-11T06:13:50.696Z,-3.11
2022-12-11T06:16:17.163Z,-3.07
2022-12-11T06:18:44.990Z,-3.10
2022-12-11T06:21:20.531Z,-3.02
2022-12-11T06:23:48.379Z,-3.11
2022-12-11T06:26:16.810Z,-3.13
2022-12-11T06:28:43.584Z,-3.15
2022-12-11T06:31:10.086Z,-3.18
2022-12-11T06:33:37.108Z,-3.18
2022-12-11T06:36:15.918Z,-3.16
2022-12-11T06:38:42.712Z,-3.10
2022-12-11T06:41:09.377Z,-3.10
2022-12-11T06:43:37.819Z,-3.08
2022-12-11T06:46:13.520Z,-3.13
2022-12-11T06:48:42.124Z,-3.11
2022-12-11T06:51:10.984Z,-3.08
2022-12-11T06:53:37.354Z,-3.02
2022-12-11T06:56:12.431Z,-3.09
2022-12-11T06:58:39.599Z,-3.13
2022-12-11T07:01:15.167Z,-3.11
2022-12-11T07:03:41.702Z,-3.09
2022-12-11T07:06:08.171Z,-3.07
2022-12-11T07:08:34.914Z,-3.11
2022-12-11T07:11:09.696Z,-3.13
2022-12-11T07:13:36.384Z,-3.04
2022-12-11T07:16:04.630Z,-3.12
2022-12-11T07:18:34.485Z,-3.10
2022-12-11T07:21:00.911Z,-3.14
2022-12-11T07:23:28.768Z,-3.09
2022-12-11T07:25:55.846Z,-3.04
2022-12-11T07:28:22.558Z,-3.02
2022-12-11T07:30:49.283Z,-3.06
2022-12-11T07:33:15.981Z,-3.09
2022-12-11T07:35:42.365Z,-3.10
2022-12-11T07:38:08.776Z,-3.06
2022-12-11T07:40:35.170Z,-3.05
2022-12-11T07:43:01.580Z,-2.97
2022-12-11T07:45:28.163Z,-2.99
2022-12-11T07:47:54.616Z,-3.06
2022-12-11T07:50:21.020Z,-3.11
2022-12-11T07:52:47.356Z,-3.14
2022-12-11T07:55:13.897Z,-3.15
2022-12-11T07:57:40.611Z,-3.17
2022-12-11T08:00:07.707Z,-3.21
2022-12-11T08:02:37.212Z,-3.14
2022-12-11T08:05:04.547Z,-3.13
2022-12-11T08:07:30.987Z,-3.05
2022-12-11T08:09:57.374Z,-3.02
2022-12-11T08:12:23.756Z,-3.09
2022-12-11T08:14:50.151Z,-3.17
2022-12-11T08:17:16.533Z,-3.22
2022-12-11T08:19:42.958Z,-3.26
2022-12-11T08:22:09.397Z,-3.26
2022-12-11T08:24:35.896Z,-3.17
2022-12-11T08:27:02.307Z,-3.21
2022-12-11T08:29:28.718Z,-3.21
2022-12-11T08:31:55.354Z,-3.22
2022-12-11T08:34:21.746Z,-3.22
2022-12-11T08:36:48.167Z,-3.22
2022-12-11T08:39:14.877Z,-3.29
2022-12-11T08:41:41.849Z,-3.26
2022-12-11T08:44:16.374Z,-3.23
2022-12-11T08:46:43.582Z,-3.23
2022-12-11T08:49:10.356Z,-3.23
2022-12-11T08:51:36.919Z,-3.19
2022-12-11T08:54:03.561Z,-3.16
2022-12-11T08:56:31.151Z,-3.10
2022-12-11T08:58:59.793Z,-3.23
2022-12-11T09:01:27.400Z,-3.30
2022-12-11T09:03:54.549Z,-3.32
2022-12-11T09:06:23.308Z,-3.35
2022-12-11T09:08:52.880Z,-3.40
2022-12-11T09:11:25.987Z,-3.38
2022-12-11T09:13:52.898Z,-3.39
2022-12-11T09:16:21.893Z,-3.46
2022-12-11T09:18:50.633Z,-3.38
2022-12-11T09:21:20.532Z,-3.41
2022-12-11T09:23:47.361Z,-3.37
2022-12-11T09:26:16.872Z,-3.29
2022-12-11T09:28:46.733Z,-3.37
2022-12-11T09:31:19.492Z,-3.43
2022-12-11T09:33:46.447Z,-3.40
2022-12-11T09:36:13.376Z,-3.26
2022-12-11T09:38:40.062Z,-3.25
2022-12-11T09:41:35.677Z,-3.15
2022-12-11T09:44:11.320Z,-2.96
2022-12-11T09:46:39.006Z,-2.89
2022-12-11T09:49:17.349Z,-3.16
2022-12-11T09:51:51.686Z,-3.03
2022-12-11T09:54:18.269Z,-2.95
2022-12-11T09:57:09.258Z,-2.82
2022-12-11T10:00:05.540Z,-2.72
2022-12-11T10:02:44.695Z,-2.62
2022-12-11T10:05:22.429Z,-2.59
2022-12-11T10:08:01.091Z,-2.59
2022-12-11T10:10:54.962Z,-2.52
2022-12-11T10:13:45.496Z,-2.57
2022-12-11T10:16:24.573Z,-2.56
2022-12-11T10:18:51.815Z,-2.57
2022-12-11T10:21:19.310Z,-2.57
2022-12-11T10:24:00.918Z,-2.64
2022-12-11T10:26:29.593Z,-2.73
2022-12-11T10:29:00.638Z,-2.79
2022-12-11T10:31:39.736Z,-2.88
2022-12-11T10:34:13.684Z,-2.87
2022-12-11T10:36:41.865Z,-2.87
2022-12-11T10:39:17.645Z,-2.82
2022-12-11T10:41:46.825Z,-2.82
2022-12-11T10:44:19.489Z,-2.77
2022-12-11T10:46:47.938Z,-2.69
2022-12-11T10:49:30.152Z,-2.71
2022-12-11T10:51:57.612Z,-2.69
2022-12-11T10:54:24.812Z,-2.63
2022-12-11T10:56:51.638Z,-2.61
2022-12-11T10:59:25.876Z,-2.62
2022-12-11T11:01:53.047Z,-2.58
2022-12-11T11:04:27.523Z,-2.64
2022-12-11T11:07:21.079Z,-2.65
2022-12-11T11:09:47.870Z,-2.85
2022-12-11T11:12:39.140Z,-2.88
2022-12-11T11:15:14.393Z,-2.89
2022-12-11T11:17:54.669Z,-2.88
2022-12-11T11:20:25.556Z,-2.94
2022-12-11T11:22:54.768Z,-2.82
2022-12-11T11:25:24.035Z,-2.76
2022-12-11T11:28:03.626Z,-2.71
2022-12-11T11:30:39.575Z,-2.61
2022-12-11T11:33:20.742Z,-2.71
2022-12-11T11:35:58.410Z,-2.72
2022-12-11T11:38:37.688Z,-2.63
2022-12-11T11:41:15.261Z,-2.56
2022-12-11T11:43:55.312Z,-2.52
2022-12-11T11:46:30.141Z,-2.52
2022-12-11T11:49:24.457Z,-2.40
2022-12-11T11:52:15.937Z,-2.47
2022-12-11T11:55:02.117Z,-2.43
2022-12-11T11:57:47.606Z,-2.39
2022-12-11T12:00:20.681Z,-2.49
2022-12-11T12:02:50.761Z,-2.46
2022-12-11T12:05:25.537Z,-2.44
2022-12-11T12:08:11.220Z,-2.48
2022-12-11T12:10:52.098Z,-2.61
2022-12-11T12:13:49.231Z,-2.55
2022-12-11T12:19:42.866Z,-2.66
2022-12-11T12:22:42.132Z,-2.69
2022-12-11T12:25:31.725Z,-2.73
2022-12-11T12:28:21.963Z,-2.72
2022-12-11T12:31:07.164Z,-2.71
2022-12-11T12:33:49.365Z,-2.77
2022-12-11T12:36:22.553Z,-2.72
2022-12-11T12:38:58.222Z,-2.69
2022-12-11T12:41:49.211Z,-2.70
2022-12-11T12:44:18.230Z,-2.88
2022-12-11T12:47:13.087Z,-2.84
2022-12-11T12:49:45.571Z,-2.79
2022-12-11T12:52:20.877Z,-3.00
2022-12-11T12:55:10.046Z,-2.95
2022-12-11T12:57:38.424Z,-3.06
2022-12-11T13:00:12.624Z,-3.08
2022-12-11T13:02:53.679Z,-3.11
2022-12-11T13:05:26.924Z,-3.12
2022-12-11T13:07:57.203Z,-3.19
2022-12-11T13:10:46.931Z,-3.15
2022-12-11T13:13:33.791Z,-3.17
2022-12-11T13:16:20.165Z,-3.27
2022-12-11T13:18:48.394Z,-3.28
2022-12-11T13:21:34.931Z,-3.26
2022-12-11T13:24:17.202Z,-3.36
2022-12-11T13:26:43.841Z,-3.35
2022-12-11T13:29:29.976Z,-3.35
2022-12-11T13:32:04.954Z,-3.22
2022-12-11T13:34:33.566Z,-3.17
2022-12-11T13:37:02.521Z,-3.20
2022-12-11T13:39:39.028Z,-3.17
2022-12-11T13:42:23.678Z,-3.31
2022-12-11T13:44:51.387Z,-3.29
2022-12-11T13:47:19.331Z,-3.21
2022-12-11T13:49:49.959Z,-3.28
2022-12-11T13:52:25.732Z,-3.36
2022-12-11T13:54:53.742Z,-3.43
2022-12-11T13:57:23.350Z,-3.42
2022-12-11T13:59:55.855Z,-3.41
2022-12-11T14:02:39.694Z,-3.37
2022-12-11T14:05:10.102Z,-3.39
2022-12-11T14:07:41.395Z,-3.35
2022-12-11T14:10:16.373Z,-3.32
2022-12-11T14:12:48.629Z,-3.38
2022-12-11T14:15:15.700Z,-3.48
2022-12-11T14:17:48.480Z,-3.40
2022-12-11T14:20:20.877Z,-3.44
2022-12-11T14:22:47.465Z,-3.46
2022-12-11T14:25:27.122Z,-3.47
2022-12-11T14:27:56.493Z,-3.44
2022-12-11T14:30:28.882Z,-3.48
2022-12-11T14:32:59.011Z,-3.44
2022-12-11T14:35:32.832Z,-3.40
2022-12-11T14:38:07.262Z,-3.52
2022-12-11T14:40:41.266Z,-3.50
2022-12-11T14:43:13.343Z,-3.59
2022-12-11T14:45:46.701Z,-3.67
2022-12-11T14:48:28.176Z,-3.69
2022-12-11T14:50:59.732Z,-3.72
2022-12-11T14:53:31.165Z,-3.74
2022-12-11T14:56:02.730Z,-3.74
2022-12-11T14:58:29.978Z,-3.72
2022-12-11T15:01:05.914Z,-3.69
2022-12-11T15:03:38.157Z,-3.71
2022-12-11T15:06:25.913Z,-3.75
2022-12-11T15:08:52.320Z,-3.71
2022-12-11T15:11:19.081Z,-3.73
2022-12-11T15:13:53.144Z,-3.73
2022-12-11T15:16:21.502Z,-3.72
2022-12-11T15:18:50.448Z,-3.71
2022-12-11T15:21:17.993Z,-3.81
2022-12-11T15:23:52.282Z,-3.87
2022-12-11T15:26:20.995Z,-3.88
2022-12-11T15:28:47.632Z,-3.84
2022-12-11T15:31:29.657Z,-3.85
2022-12-11T15:33:56.297Z,-3.79
2022-12-11T15:36:33.771Z,-3.78
2022-12-11T15:39:00.941Z,-3.86
2022-12-11T15:41:28.548Z,-3.87
2022-12-11T15:43:58.950Z,-3.86
2022-12-11T15:46:26.081Z,-3.86
2022-12-11T15:48:52.591Z,-3.77
2022-12-11T15:51:18.997Z,-3.83
2022-12-11T15:53:45.370Z,-3.85
2022-12-11T15:56:15.779Z,-3.84
2022-12-11T15:58:47.372Z,-3.91
2022-12-11T16:01:13.831Z,-3.96
2022-12-11T16:03:40.288Z,-3.91
2022-12-11T16:06:06.803Z,-3.90
2022-12-11T16:08:33.261Z,-3.93
2022-12-11T16:10:59.839Z,-3.99
2022-12-11T16:13:26.231Z,-3.99
2022-12-11T16:15:53.809Z,-3.96
2022-12-11T16:18:21.720Z,-3.99
2022-12-11T16:20:49.361Z,-3.91
2022-12-11T16:23:17.180Z,-3.90
2022-12-11T16:25:45.969Z,-3.86
2022-12-11T16:28:14.850Z,-3.88
2022-12-11T16:30:43.624Z,-4.03
2022-12-11T16:33:13.159Z,-4.04
2022-12-11T16:35:42.834Z,-4.02
2022-12-11T16:38:10.605Z,-3.91
2022-12-11T16:40:37.794Z,-3.92
2022-12-11T16:43:05.109Z,-3.98
2022-12-11T16:45:32.174Z,-3.88
2022-12-11T16:47:58.689Z,-4.00
2022-12-11T16:50:25.910Z,-4.05
2022-12-11T16:52:52.416Z,-3.94
2022-12-11T16:55:22.206Z,-3.96
2022-12-11T16:57:48.879Z,-4.00
2022-12-11T17:00:15.966Z,-3.99
2022-12-11T17:02:42.448Z,-4.04
2022-12-11T17:05:09.210Z,-3.93
2022-12-11T17:07:35.814Z,-4.01
2022-12-11T17:10:03.218Z,-3.96
2022-12-11T17:12:30.452Z,-4.04
2022-12-11T17:14:57.179Z,-4.00
2022-12-11T17:17:23.804Z,-4.07
2022-12-11T17:19:50.344Z,-4.05
2022-12-11T17:22:16.848Z,-3.97
2022-12-11T17:24:43.315Z,-4.00
2022-12-11T17:27:09.775Z,-3.99
2022-12-11T17:29:36.351Z,-4.05
2022-12-11T17:32:03.305Z,-4.09
2022-12-11T17:34:36.156Z,-4.09
2022-12-11T17:37:04.949Z,-4.04
2022-12-11T17:39:31.585Z,-3.98
2022-12-11T17:41:57.952Z,-3.99
2022-12-11T17:44:26.487Z,-3.94
2022-12-11T17:46:53.125Z,-4.01
2022-12-11T17:49:19.974Z,-3.98
2022-12-11T17:51:46.377Z,-3.99
2022-12-11T17:54:12.888Z,-3.98
2022-12-11T17:56:39.532Z,-4.04
2022-12-11T17:59:06.307Z,-4.01
2022-12-11T18:01:33.124Z,-4.03
2022-12-11T18:04:01.731Z,-4.07
2022-12-11T18:06:31.279Z,-4.05
2022-12-11T18:08:58.014Z,-3.99
2022-12-11T18:11:25.043Z,-4.08
2022-12-11T18:13:52.685Z,-4.08
2022-12-11T18:16:21.373Z,-4.03
2022-12-11T18:18:48.786Z,-4.05
2022-12-11T18:21:25.230Z,-3.96
2022-12-11T18:23:51.782Z,-3.93
2022-12-11T18:26:19.410Z,-4.01
2022-12-11T18:28:46.505Z,-4.04
2022-12-11T18:31:13.694Z,-4.01
2022-12-11T18:33:41.941Z,-4.05
2022-12-11T18:36:08.986Z,-4.12
2022-12-11T18:38:36.220Z,-4.12
2022-12-11T18:41:07.542Z,-4.13
2022-12-11T18:43:34.537Z,-4.09
2022-12-11T18:46:05.373Z,-4.23
2022-12-11T18:48:31.818Z,-4.24
2022-12-11T18:50:58.239Z,-4.19
2022-12-11T18:53:24.639Z,-4.20
2022-12-11T18:55:54.551Z,-4.21
2022-12-11T18:58:23.601Z,-4.21
2022-12-11T19:00:50.058Z,-4.14
2022-12-11T19:03:16.468Z,-4.20
2022-12-11T19:05:43.852Z,-4.17
2022-12-11T19:08:12.509Z,-4.11
2022-12-11T19:10:45.039Z,-4.12
2022-12-11T19:13:12.096Z,-4.18
2022-12-11T19:15:43.317Z,-4.17
2022-12-11T19:18:10.620Z,-4.17
2022-12-11T19:20:55.399Z,-4.20
2022-12-11T19:23:29.471Z,-4.19
2022-12-11T19:25:55.862Z,-4.24
2022-12-11T19:28:22.225Z,-4.21
2022-12-11T19:30:49.216Z,-4.20
2022-12-11T19:33:16.480Z,-4.18
2022-12-11T19:35:43.256Z,-4.21
2022-12-11T19:38:10.405Z,-4.25
2022-12-11T19:40:44.588Z,-4.20
2022-12-11T19:43:11.305Z,-4.24
2022-12-11T19:45:37.903Z,-4.17
2022-12-11T19:48:04.600Z,-4.19
2022-12-11T19:50:32.472Z,-4.21
2022-12-11T19:52:58.923Z,-4.23
2022-12-11T19:55:25.751Z,-4.24
2022-12-11T19:57:52.235Z,-4.22
2022-12-11T20:00:19.570Z,-4.22
2022-12-11T20:02:45.979Z,-4.19
2022-12-11T20:05:13.152Z,-4.24
2022-12-11T20:07:40.078Z,-4.22
2022-12-11T20:10:07.219Z,-4.16
2022-12-11T20:12:33.594Z,-4.23
2022-12-11T20:15:00.153Z,-4.21
2022-12-11T20:17:26.577Z,-4.15
2022-12-11T20:19:53.035Z,-4.21
2022-12-11T20:22:19.436Z,-4.16
2022-12-11T20:24:45.821Z,-4.20
2022-12-11T20:27:12.537Z,-4.17
2022-12-11T20:29:39.084Z,-4.26
2022-12-11T20:32:05.618Z,-4.22
2022-12-11T20:34:32.125Z,-4.12
2022-12-11T20:37:00.166Z,-4.19
2022-12-11T20:39:27.057Z,-4.04
2022-12-11T20:41:53.471Z,-4.03
2022-12-11T20:44:20.156Z,-4.04
2022-12-11T20:46:46.569Z,-4.02
2022-12-11T20:49:13.319Z,-3.98
2022-12-11T20:51:40.042Z,-3.98
2022-12-11T20:54:06.515Z,-4.01
2022-12-11T20:56:32.975Z,-4.05
2022-12-11T20:58:59.803Z,-4.10
2022-12-11T21:01:29.792Z,-4.16
2022-12-11T21:03:56.466Z,-4.21
2022-12-11T21:06:31.204Z,-4.19
2022-12-11T21:09:00.274Z,-4.20
2022-12-11T21:11:27.146Z,-4.20
2022-12-11T21:13:53.728Z,-4.26
2022-12-11T21:16:21.306Z,-4.17
2022-12-11T21:18:48.274Z,-4.23
2022-12-11T21:21:15.955Z,-4.30
2022-12-11T21:23:42.448Z,-4.34
2022-12-11T21:26:08.946Z,-4.16
2022-12-11T21:28:35.870Z,-4.20
2022-12-11T21:31:05.464Z,-4.25
2022-12-11T21:33:32.149Z,-4.24
2022-12-11T21:35:59.654Z,-4.23
2022-12-11T21:38:26.883Z,-4.26
2022-12-11T21:40:54.365Z,-4.30
2022-12-11T21:43:20.980Z,-4.23
2022-12-11T21:46:03.982Z,-4.16
2022-12-11T21:48:30.862Z,-4.22
2022-12-11T21:51:08.636Z,-4.21
2022-12-11T21:53:35.427Z,-4.25
2022-12-11T21:56:06.229Z,-4.21
2022-12-11T21:58:32.574Z,-4.19
2022-12-11T22:00:59.100Z,-4.17
2022-12-11T22:03:25.547Z,-4.25
2022-12-11T22:05:51.925Z,-4.30
2022-12-11T22:08:18.335Z,-4.25
2022-12-11T22:10:44.826Z,-4.21
2022-12-11T22:13:11.199Z,-4.24
2022-12-11T22:15:37.690Z,-4.28
2022-12-11T22:18:04.188Z,-4.30
2022-12-11T22:20:30.646Z,-4.20
2022-12-11T22:22:57.301Z,-4.35
2022-12-11T22:25:23.953Z,-4.34
2022-12-11T22:27:50.987Z,-4.36
2022-12-11T22:30:17.455Z,-4.35
2022-12-11T22:32:45.150Z,-4.42
2022-12-11T22:35:12.064Z,-4.39
2022-12-11T22:37:38.788Z,-4.33
2022-12-11T22:40:05.726Z,-4.35
2022-12-11T22:42:32.394Z,-4.32
2022-12-11T22:44:58.757Z,-4.34
2022-12-11T22:47:25.180Z,-4.33
2022-12-11T22:49:51.698Z,-4.33
2022-12-11T22:52:18.074Z,-4.30
2022-12-11T22:54:44.806Z,-4.28
2022-12-11T22:57:11.159Z,-4.25
2022-12-11T22:59:37.575Z,-4.31
2022-12-11T23:02:04.047Z,-4.32
2022-12-11T23:04:30.650Z,-4.35
2022-12-11T23:06:57.121Z,-4.34
2022-12-11T23:09:24.096Z,-4.31
2022-12-11T23:11:51.407Z,-4.37
2022-12-11T23:14:18.660Z,-4.28
2022-12-11T23:16:45.361Z,-4.33
2022-12-11T23:19:12.571Z,-4.23
2022-12-11T23:21:39.112Z,-4.16
2022-12-11T23:24:06.221Z,-4.17
2022-12-11T23:26:33.014Z,-4.26
2022-12-11T23:28:59.698Z,-4.33
2022-12-11T23:31:26.843Z,-4.26
2022-12-11T23:33:53.820Z,-4.22
2022-12-11T23:36:20.315Z,-4.25
2022-12-11T23:38:52.580Z,-4.25
2022-12-11T23:41:21.067Z,-4.23
2022-12-11T23:43:47.430Z,-4.21
2022-12-11T23:46:17.270Z,-4.26
2022-12-11T23:48:43.792Z,-4.30
2022-12-11T23:51:14.119Z,-4.16
2022-12-11T23:53:41.536Z,-4.09
2022-12-11T23:56:11.299Z,-4.11
2022-12-11T23:58:40.861Z,-4.18
